Weather observations for the past three days for
Bellaire, Antrim County Airport
Imperial (Metric)
Date Time (edt) Wind (mph) Vis. (mi.) Weather Sky Cond. Temperature (ºF) Relative Humidity Wind Chill (°F) Heat Index (°F) Pressure Precipitation (in)
Air Dwpt 6 hour altimeter (in) sea level (mb) 1 hr 3 hr 6 hr
Max. Min.
08 21:55 Calm 10.00 Overcast BKN090 OVC110 50.7 32.4 50% 29.67 0.0
08 21:35 Calm 10.00 Overcast SCT090 OVC110 52.5 32 46% 29.67 0.0
08 21:15 Calm 10.00 Overcast OVC090 53.6 30.6 41% 29.67 0.0
08 20:55 Calm 10.00 Mostly Cloudy SCT090 BKN120 55.8 28.9 36% 29.67 0.0
08 20:35 Calm 10.00 Overcast OVC120 58.1 27 30% 29.66 0.0
08 20:15 Calm 10.00 Overcast SCT095 OVC110 59 26.8 29% 29.66 0.0
08 19:55 Calm 10.00 Mostly Cloudy BKN100 59.5 26.8 62.1 59.5 29% 29.67 0.0
08 19:35 Calm 10.00 Overcast OVC090 59.9 25.5 27% 29.67 0.0
08 19:15 SW 3 10.00 Overcast OVC090 59.9 24.8 26% 29.67 0.0
08 18:55 SW 3 10.00 Overcast OVC090 60.1 24.8 26% 29.67 0.0
08 18:35 SW 5 10.00 Partly Cloudy SCT100 59.9 24.1 25% 29.67 0.0
08 18:15 SW 10 10.00 Partly Cloudy SCT100 60.3 23.5 24% 29.68 0.0
08 17:55 W 7 10.00 Fair CLR 61.9 23.4 23% 29.68 0.0
08 17:35 SW 6 10.00 Fair CLR 62.1 23.9 23% 29.69 0.0
08 17:15 SW 7 10.00 Partly Cloudy SCT085 61.9 24.1 24% 29.69 0.0
08 16:55 SW 9 10.00 Mostly Cloudy BKN085 61.2 25.7 26% 29.69 0.0
08 16:35 W 6 10.00 Partly Cloudy SCT085 60.1 26.4 28% 29.7 0.0
08 16:15 W 3 10.00 Fair CLR 60.8 24.8 25% 29.7 0.0
08 15:55 W 5 10.00 Fair CLR 61.3 24.8 25% 29.71 0.0
08 15:35 W 6 G 17 10.00 Fair CLR 61 24.1 24% 29.72 0.0
08 15:15 SW 7 10.00 Partly Cloudy SCT095 60.8 24.1 24% 29.73 0.0
08 14:55 SW 14 G 22 10.00 Fair CLR 60.8 23.2 24% 29.73 0.0
08 14:35 SW 13 G 20 10.00 Fair CLR 60.4 22.3 23% 29.74 0.0
08 14:15 SW 12 G 21 10.00 Fair CLR 59.7 21.2 23% 29.74 0.0
08 13:55 SW 12 G 20 10.00 Fair CLR 59.4 21 60.3 34.3 23% 29.75 0.0
08 13:35 SW 6 G 21 10.00 Fair CLR 59.5 22.5 24% 29.75 0.0
08 13:15 SW 6 G 18 10.00 Fair CLR 59 22.5 24% 29.76 0.0
08 12:55 SW 12 G 25 10.00 Partly Cloudy SCT085 58.5 23 25% 29.77 0.0
08 12:35 SW 8 G 18 10.00 Partly Cloudy SCT085 58.8 24.6 27% 29.77 0.0
08 12:15 S 8 G 17 10.00 Partly Cloudy SCT085 57.2 26.8 31% 29.78 0.0
08 11:55 SW 8 G 22 10.00 Partly Cloudy SCT085 55.8 28.2 35% 29.79 0.0
08 11:35 SW 3 10.00 Partly Cloudy SCT085 55.2 30 38% 29.79 0.0
08 11:15 SW 7 10.00 Mostly Cloudy BKN085 52.7 30 42% 29.8 0.0
08 10:55 SW 8 10.00 Overcast OVC085 52 30.9 45% 29.8 0.0
08 10:35 SW 8 10.00 Mostly Cloudy BKN085 51.1 32.2 49% 29.81 0.0
08 10:15 SW 9 10.00 Partly Cloudy SCT085 49.1 32 52% 46 29.81 0.0
08 09:55 SW 7 10.00 Partly Cloudy SCT095 48.6 32 53% 46 29.81 0.0
08 09:35 S 8 10.00 Partly Cloudy SCT095 47.3 32 55% 44 29.81 0.0
08 09:15 S 5 10.00 Partly Cloudy SCT095 45.5 32 59% 44 29.82 0.0
08 08:55 S 5 10.00 Partly Cloudy SCT095 43.7 32 64% 42 29.82 0.0
08 08:35 Calm 10.00 Partly Cloudy SCT095 38.7 32 77% 29.82 0.0
08 08:15 Calm 10.00 Mostly Cloudy BKN095 36.1 31.5 83% 29.82 0.0
08 07:55 Calm 10.00 Overcast OVC095 34 30 34 28.6 85% 29.82 0.0
08 07:35 Calm 10.00 Overcast SCT060 OVC095 32.5 29.5 89% 29.82 0.0
08 07:15 Calm 10.00 Overcast SCT060 BKN070 OVC095 31.8 28.9 89% 29.82 0.0
08 06:55 Calm 10.00 Overcast SCT060 BKN070 OVC100 30.4 29.1 95% 29.82 0.0
08 06:35 Calm 10.00 Mostly Cloudy SCT070 BKN100 29.1 27.5 94% 29.82 0.0
08 06:15 Calm 10.00 Partly Cloudy SCT080 SCT085 28.9 27.5 94% 29.82 0.0
08 05:55 Calm 10.00 Partly Cloudy SCT080 SCT100 29.5 27.9 94% 29.82 0.0
08 05:35 Calm 10.00 Mostly Cloudy SCT070 BKN100 29.5 27.9 94% 29.82 0.0
08 05:15 Calm 10.00 Overcast SCT070 OVC100 29.7 28 94% 29.83 0.0
08 04:55 Calm 10.00 Mostly Cloudy BKN100 29.5 27.9 94% 29.83 0.0
08 04:35 Calm 10.00 Partly Cloudy SCT100 30.2 27.7 90% 29.83 0.0
08 04:15 Calm 10.00 Overcast SCT070 BKN075 OVC100 30.6 27.9 90% 29.84 0.0
08 03:55 SE 3 10.00 Mostly Cloudy SCT070 BKN090 BKN110 29.8 27.9 92% 29.84 0.0
08 03:35 Calm 10.00 Fair CLR 29.3 27.9 94% 29.85 0.0
08 03:15 Calm 10.00 Fair CLR 28.9 27.1 93% 29.85 0.0
08 02:55 Calm 10.00 Partly Cloudy SCT080 29.3 28 95% 29.86 0.0
08 02:35 Calm 10.00 Partly Cloudy SCT095 29.8 28.2 94% 29.86 0.0
08 02:15 Calm 10.00 Fair CLR 30.2 28.4 93% 29.86 0.0
08 01:55 Calm 10.00 Fair CLR 30.2 28.4 46.6 30.2 93% 29.87 0.0
08 01:35 Calm 10.00 Fair CLR 30.6 28.8 93% 29.87 0.0
08 01:15 Calm 10.00 Fair CLR 31.6 29.1 90% 29.87 0.0
08 00:55 Calm 10.00 Fair CLR 32 29.5 90% 29.87 0.0
08 00:35 Calm 10.00 Fair CLR 33.1 30 89% 29.87 0.0
08 00:15 Calm 10.00 Partly Cloudy SCT090 33.8 30 86% 29.87 0.0
07 23:55 Calm 10.00 Mostly Cloudy SCT100 BKN120 35.8 30.7 82% 29.87 0.0
07 23:35 Calm 10.00 Mostly Cloudy BKN120 36 29.3 77% 29.87 0.0
07 23:15 Calm 10.00 Partly Cloudy SCT095 37.2 28.6 71% 29.86 0.0
07 22:55 Calm 10.00 Overcast OVC095 37.9 30 73% 29.87 0.0
07 22:35 Calm 10.00 Overcast SCT075 OVC095 38.8 30 71% 29.87 0.0
07 22:15 Calm 10.00 Overcast SCT075 OVC095 38.3 30.2 73% 29.87 0.0
07 21:55 Calm 10.00 Overcast OVC095 38.7 29.7 70% 29.87 0.0
07 21:35 Calm 10.00 Overcast OVC095 39 28.2 65% 29.86 0.0
07 21:15 Calm 10.00 Overcast OVC095 40.1 29.1 65% 29.85 0.0
07 20:55 Calm 10.00 Mostly Cloudy BKN095 42.1 27.7 57% 29.85 0.0
07 20:35 Calm 10.00 Mostly Cloudy BKN095 44.6 26.6 49% 29.85 0.0
07 20:15 Calm 10.00 Overcast OVC095 46 23.9 42% 29.85 0.0
07 19:55 Calm 10.00 Overcast OVC095 46.4 23.4 48.6 45.5 40% 29.85 0.0
07 19:35 Calm 10.00 Overcast OVC095 46.6 23.2 40% 29.85 0.0
07 19:15 W 6 10.00 Overcast OVC095 47.3 21.7 36% 45 29.85 0.0
07 18:55 Calm 10.00 Overcast OVC095 47.1 21.7 37% 29.85 0.0
07 18:35 W 5 10.00 Overcast OVC095 48.2 21.2 34% 47 29.85 0.0
07 18:15 W 5 10.00 Overcast OVC095 47.8 21.7 36% 46 29.85 0.0
07 17:55 W 6 10.00 Mostly Cloudy BKN085 47.8 21.4 35% 46 29.85 0.0
07 17:35 Calm 10.00 Mostly Cloudy SCT050 SCT070 BKN085 48.4 23.5 38% 29.86 0.0
07 17:15 Calm 10.00 Overcast OVC085 48.2 24.3 39% 29.85 0.0
07 16:55 SW 7 10.00 Overcast SCT049 SCT070 OVC085 48 25 41% 45 29.86 0.0
07 16:35 SW 5 10.00 Overcast SCT049 OVC085 47.7 25.2 41% 46 29.86 0.0
07 16:15 W 5 10.00 Overcast SCT050 OVC085 47.3 25.5 43% 46 29.86 0.0
07 15:55 SW 6 10.00 Overcast SCT050 BKN075 OVC085 47.5 25.7 43% 45 29.87 0.0
07 15:35 Calm 10.00 Overcast OVC065 46 26.1 46% 29.87 0.0
07 15:15 W 5 10.00 Overcast OVC065 45.7 25.2 45% 44 29.88 0.0
07 14:55 W 6 10.00 Overcast SCT050 OVC075 46.4 25.2 43% 44 29.87 0.0
07 14:35 NW 7 10.00 Overcast SCT050 OVC075 46.9 25.2 43% 44 29.88 0.0
07 14:15 W 5 10.00 Overcast SCT050 SCT060 OVC075 46.8 24.8 42% 45 29.88 0.0
07 13:55 W 8 10.00 Overcast SCT049 BKN060 OVC075 46.6 25.2 46.8 33.8 43% 43 29.88 0.0
07 13:35 SW 3 10.00 Overcast BKN049 OVC055 45.9 25.5 45% 29.89 0.0
07 13:15 SW 7 10.00 Overcast OVC049 45.9 25.7 45% 43 29.89 0.0
07 12:55 SW 7 10.00 Overcast BKN049 BKN060 OVC075 45.7 25.5 45% 43 29.9 0.0
07 12:35 SW 6 10.00 Overcast SCT047 SCT060 OVC075 46.6 26.1 45% 44 29.9 0.0
07 12:15 W 3 10.00 Overcast SCT044 BKN050 OVC075 46.2 26.8 47% 29.91 0.0
07 11:55 SW 8 10.00 Overcast BKN040 BKN048 OVC075 45.9 27.5 49% 42 29.91 0.0
07 11:35 W 6 10.00 Overcast SCT040 BKN047 OVC075 45.5 28.6 52% 43 29.91 0.0
07 11:15 SW 6 10.00 Overcast OVC075 45.5 29.1 53% 43 29.92 0.0
07 10:55 Calm 10.00 Overcast SCT044 SCT050 OVC075 44.6 29.3 55% 29.92 0.0
07 10:35 Calm 10.00 Overcast BKN049 OVC075 43.5 30 59% 29.92 0.0
07 10:15 W 6 10.00 Overcast SCT047 SCT055 OVC075 43.5 28.8 56% 41 29.92 0.0
07 09:55 SW 5 10.00 Overcast OVC075 43.3 30.6 61% 41 29.92 0.0
07 09:35 SW 3 10.00 Overcast OVC075 42.8 31.5 64% 29.92 0.0
07 09:15 Calm 10.00 Mostly Cloudy BKN075 41.5 32.2 69% 29.92 0.0
07 08:55 S 3 10.00 Mostly Cloudy BKN075 39.2 32 75% 29.92 0.0
07 08:35 S 3 10.00 Overcast OVC075 38.3 32 78% 29.92 0.0
07 08:15 Calm 10.00 Mostly Cloudy BKN075 36.3 32.4 86% 29.92 0.0
07 07:55 Calm 10.00 Mostly Cloudy BKN075 33.8 31.1 36.1 29.3 90% 29.92 0.0
07 07:35 Calm 10.00 Mostly Cloudy BKN075 32 30.9 96% 29.91 0.0
07 07:15 Calm 10.00 Overcast OVC075 30.2 29.3 96% 29.91 0.0
07 06:55 Calm 10.00 Mostly Cloudy BKN075 29.8 29.1 97% 29.9 0.0
07 06:35 Calm 10.00 Partly Cloudy SCT075 29.3 28.8 98% 29.89 0.0
07 06:15 Calm 10.00 Fair CLR 29.5 28.6 96% 29.89 0.0
07 05:55 Calm 10.00 Fair CLR 30.2 29.1 96% 29.89 0.0
07 05:35 Calm 10.00 Fair CLR 30.9 29.7 95% 29.89 0.0
07 05:15 Calm 10.00 Mostly Cloudy BKN080 31.8 30.2 94% 29.9 0.0
07 04:55 Calm 10.00 Overcast OVC080 32 30.6 94% 29.9 0.0
07 04:35 Calm 10.00 Overcast OVC090 33.1 31.1 92% 29.91 0.0
07 04:15 Calm 10.00 Overcast OVC090 34 31.3 90% 29.91 0.0
07 03:55 Calm 10.00 Overcast OVC090 34.2 31.5 90% 29.9 0.0
07 03:35 Calm 10.00 Overcast OVC090 34.9 31.8 89% 29.91 0.0
07 03:15 Calm 10.00 Overcast SCT070 OVC090 35.6 32 87% 29.91 0.0
07 02:55 Calm 10.00 Overcast BKN070 OVC090 36 31.8 85% 29.92 0.0
07 02:35 Calm 10.00 Overcast BKN070 OVC090 36 31.3 83% 29.92 0.0
07 02:15 Calm 10.00 Overcast BKN070 OVC090 36.1 30.9 81% 29.92 0.0
07 01:55 Calm 10.00 Overcast BKN070 OVC090 36.1 31.6 42.8 36.1 84% 29.93 0.0
07 01:35 Calm 10.00 Overcast OVC090 36.5 31.1 81% 29.93 0.0
07 01:15 Calm 10.00 Overcast BKN070 OVC090 37 31.1 79% 29.93 0.0
07 00:55 Calm 10.00 Overcast BKN060 OVC090 37.4 30.9 77% 29.93 0.0
07 00:35 Calm 10.00 Overcast BKN060 OVC090 38.1 30.4 74% 29.93 0.0
07 00:15 Calm 10.00 Overcast SCT060 OVC070 37.9 30 73% 29.94 0.0
06 23:55 Calm 10.00 Overcast SCT050 BKN070 OVC090 38.8 29.8 70% 29.94 0.0
06 23:35 Calm 10.00 Overcast BKN050 OVC090 39.2 29.8 69% 29.94 0.0
06 23:15 Calm 10.00 Overcast BKN050 BKN070 OVC080 39.2 29.8 69% 29.94 0.0
06 22:55 Calm 10.00 Overcast SCT050 BKN065 OVC080 39.4 30 69% 29.94 0.0
06 22:35 Calm 10.00 Overcast BKN075 OVC085 39.6 28.6 65% 29.94 0.0
06 22:15 Calm 10.00 Overcast SCT075 OVC085 39.7 28.8 65% 29.94 0.0
06 21:55 Calm 10.00 Overcast OVC085 40.5 26.4 57% 29.93 0.0
06 21:35 Calm 10.00 Overcast OVC085 41.2 25.2 53% 29.93 0.0
06 21:15 Calm 10.00 Overcast OVC085 41.4 25 52% 29.93 0.0
06 20:55 Calm 10.00 Overcast SCT075 OVC085 41.7 25 52% 29.92 0.0
06 20:35 NW 3 10.00 Overcast OVC085 41.9 24.8 51% 29.92 0.0
06 20:15 N 3 10.00 Overcast OVC075 42.4 24.4 49% 29.92 0.0
06 19:55 Calm 10.00 Overcast OVC075 42.8 24.6 47.8 42.8 49% 29.92 0.0
06 19:35 NW 3 10.00 Overcast OVC075 43 24.8 49% 29.92 0.0
06 19:15 N 6 10.00 Overcast OVC075 43.3 24.4 47% 40 29.92 0.0
06 18:55 NW 6 10.00 Overcast OVC075 43.7 24.1 46% 41 29.92 0.0
06 18:35 N 7 10.00 Overcast OVC075 44.1 23.9 45% 41 29.92 0.0
06 18:15 NW 5 10.00 Overcast OVC075 44.2 24.3 45% 42 29.92 0.0
06 17:55 NW 5 10.00 Overcast OVC075 44.6 24.4 45% 43 29.92 0.0
06 17:35 N 5 10.00 Overcast OVC075 45 24.6 45% 43 29.91 0.0
06 17:15 NW 5 10.00 Overcast OVC065 45.3 25.2 45% 43 29.92 0.0
06 16:55 W 7 10.00 Overcast OVC065 45.5 25.3 45% 42 29.91 0.0
06 16:35 NW 6 10.00 Overcast OVC065 45.1 25.9 47% 43 29.91 0.0
06 16:15 W 3 10.00 Overcast SCT050 OVC065 45.3 25.7 46% 29.92 0.0
06 15:55 W 5 10.00 Overcast OVC048 44.1 26.6 50% 42 29.93 0.0
06 15:35 W 5 10.00 Overcast OVC050 43.7 26.4 51% 42 29.93 0.0
06 15:15 W 6 10.00 Overcast BKN050 OVC065 44.4 25.9 48% 42 29.92 0.0
06 14:55 W 7 10.00 Overcast BKN042 BKN055 OVC065 46.4 26.6 46% 43 29.92 0.0
06 14:35 W 7 10.00 Overcast BKN042 OVC075 46.9 26.8 46% 44 29.92 0.0
06 14:15 W 8 10.00 Mostly Cloudy BKN046 BKN075 45.1 25.3 46% 41 29.92 0.0
06 13:55 NW 6 10.00 Mostly Cloudy SCT046 SCT065 BKN075 45.7 24.6 46 34.7 44% 43 29.93 0.0
06 13:35 NW 6 10.00 Overcast SCT048 OVC075 44.8 23 42% 42 29.93 0.0
06 13:15 SW 7 10.00 Overcast SCT050 OVC075 45 23.2 42% 42 29.93 0.0
06 12:55 Calm 10.00 Overcast SCT050 OVC075 45 22.1 40% 29.94 0.0
06 12:35 W 5 10.00 Overcast SCT050 OVC075 45.9 21.9 39% 44 29.94 0.0
06 12:15 W 5 10.00 Overcast BKN050 BKN065 OVC075 44.8 22.1 41% 43 29.94 0.0
06 11:55 W 3 10.00 Overcast SCT050 BKN065 OVC075 44.4 20.8 39% 29.94 0.0
06 11:35 W 6 10.00 Overcast BKN050 BKN065 OVC075 44.6 21.2 39% 42 29.94 0.0
06 11:15 NW 7 10.00 Overcast SCT050 OVC075 43.9 20.8 40% 40 29.93 0.0
06 10:55 W 7 10.00 Mostly Cloudy SCT050 BKN075 43.9 20.1 39% 40 29.93 0.0
06 10:35 W 5 10.00 Partly Cloudy SCT050 SCT065 44.2 20.7 39% 42 29.92 0.0
06 10:15 W 8 10.00 Mostly Cloudy SCT049 BKN065 43.2 21 41% 39 29.92 0.0
06 09:55 N 6 10.00 Partly Cloudy SCT065 42.8 22.3 44% 40 29.91 0.0
06 09:35 NE 3 10.00 Partly Cloudy SCT065 41.5 21.9 46% 29.9 0.0
06 09:15 Calm 10.00 Overcast OVC065 41 24.6 52% 29.91 0.0
06 08:55 Calm 10.00 Overcast OVC065 39 25 57% 29.91 0.0
06 08:35 Calm 10.00 Overcast OVC065 38.8 25.2 58% 29.91 0.0
06 08:15 S 3 10.00 Overcast OVC065 37.4 27.5 68% 29.91 0.0
06 07:55 Calm 10.00 Mostly Cloudy BKN065 34.3 28.4 39 29.5 79% 29.9 0.0
06 07:35 Calm 10.00 Partly Cloudy SCT065 32 27.5 83% 29.9 0.0
06 07:15 Calm 10.00 Fair CLR 30.6 27.7 89% 29.89 0.0
06 06:55 Calm 10.00 Fair CLR 29.8 26.6 88% 29.88 0.0
06 06:35 Calm 10.00 Fair CLR 29.7 26.1 86% 29.88 0.0
06 06:15 Calm 10.00 Fair CLR 30.2 25.5 83% 29.88 0.0
06 05:55 Calm 10.00 Fair CLR 30.7 26.2 83% 29.87 0.0
06 05:35 Calm 10.00 Fair CLR 32 25.9 78% 29.87 0.0
06 05:15 Calm 10.00 Partly Cloudy SCT070 35.2 23.9 63% 29.87 0.0
06 04:55 Calm 10.00 Mostly Cloudy BKN080 35.6 25 65% 29.87 0.0
06 04:35 Calm 10.00 Overcast OVC080 36.7 25.3 64% 29.87 0.0
06 04:15 N 5 10.00 Overcast OVC080 37.6 24.8 60% 35 29.87 0.0
06 03:55 Calm 10.00 Overcast OVC080 37.8 25.7 62% 29.87 0.0
06 03:35 N 5 10.00 Overcast OVC080 38.3 26.2 62% 35 29.87 0.0
06 03:15 N 3 10.00 Overcast OVC080 38.3 26.4 62% 29.87 0.0
06 02:55 N 5 10.00 Overcast OVC080 38.5 27.7 65% 36 29.87 0.0
06 02:35 Calm 10.00 Overcast SCT048 OVC080 38.8 28.9 68% 29.87 0.0
06 02:15 N 5 10.00 Overcast BKN046 BKN050 OVC080 38.8 28.9 68% 36 29.86 0.0
06 01:55 Calm 10.00 Overcast SCT042 OVC080 38.8 28.8 50.9 38.8 67% 29.85 0.0
06 01:35 N 3 10.00 Overcast OVC080 39.2 28.4 65% 29.86 0.0
06 01:15 N 6 10.00 Overcast OVC080 39.4 28.4 65% 36 29.85 0.0
06 00:55 N 7 10.00 Overcast OVC080 39.6 29.3 67% 35 29.85 0.0
06 00:35 N 5 10.00 Overcast OVC080 40.1 30.2 68% 37 29.85 0.0
06 00:15 N 6 10.00 Overcast OVC080 40.1 30.7 69% 37 29.84 0.0
05 23:55 N 6 10.00 Overcast OVC080 40.5 31.1 69% 37 29.84 0.0
05 23:35 N 5 10.00 Overcast OVC080 40.5 31.8 71% 38 29.83 0.0
05 23:15 N 3 10.00 Overcast OVC080 40.6 32 71% 29.83 0.0
05 22:55 N 5 10.00 Overcast OVC080 41 32 70% 38 29.82 0.0
05 22:35 N 3 10.00 Overcast OVC080 41.5 32.2 69% 29.81 0.0
05 22:15 N 6 10.00 Overcast OVC080 41.9 32.5 70% 39 29.8 0.0
Date Time (edt) Wind (mph) Vis. (mi.) Weather Sky Cond. Air Dwpt Max. Min. Relative Humidity Wind Chill (°F) Heat Index (°F) altimeter (in) sea level (mb) 1 hr 3 hr 6 hr
6 hour
Temperature (ºF) Pressure Precipitation (in)